Time;durP1;ratioP1;P1;durP2;ratioP2;P2;SDS_P1;SDS_P2;PMS_P1;PMS_P2;Temp;Humidity;BMP_temperature;BMP_pressure;BME280_temperature;BME280_humidity;BME280_pressure;Samples;Min_cycle;Max_cycle;Signal;HPM_P1;HPM_P2
2021/06/24 00:01:16;;;;;;;16.30;6.97;;;;;;;39.28;23.07;94765.31;5116200;28;20047;-56
2021/06/24 00:03:44;;;;;;;15.70;6.97;;;;;;;39.42;22.91;94772.84;5109042;28;20056;-55
2021/06/24 00:06:11;;;;;;;13.98;6.57;;;;;;;39.30;22.88;94766.38;5095660;28;20047;-57
2021/06/24 00:08:38;;;;;;;11.02;6.28;;;;;;;39.30;23.03;94768.34;5118425;27;20039;-56
2021/06/24 00:11:13;;;;;;;14.10;6.57;;;;;;;39.28;23.32;94762.56;5129926;27;20378;-56
2021/06/24 00:13:40;;;;;;;16.33;6.55;;;;;;;39.26;23.03;94770.50;5115504;28;20719;-56
2021/06/24 00:16:08;;;;;;;19.48;7.22;;;;;;;39.45;23.10;94766.44;5115879;28;20043;-57
2021/06/24 00:18:35;;;;;;;19.20;7.25;;;;;;;39.39;23.08;94763.59;5117999;27;20047;-56
2021/06/24 00:21:04;;;;;;;14.07;6.07;;;;;;;39.46;23.09;94759.75;5115691;28;20043;-60
2021/06/24 00:23:32;;;;;;;15.85;6.25;;;;;;;39.41;23.03;94771.34;5115367;28;20051;-55
2021/06/24 00:25:59;;;;;;;13.75;6.25;;;;;;;39.23;23.33;94776.88;5097684;28;20051;-56
2021/06/24 00:28:27;;;;;;;15.00;6.90;;;;;;;38.84;23.67;94771.25;5115021;28;20039;-55
2021/06/24 00:30:56;;;;;;;14.27;7.10;;;;;;;39.14;23.33;94781.19;5097752;28;20067;-56
2021/06/24 00:33:42;;;;;;;15.70;6.82;;;;;;;39.17;23.23;94779.50;5115350;28;20070;-59
2021/06/24 00:36:09;;;;;;;15.45;6.70;;;;;;;38.96;23.79;94778.47;5115650;28;20047;-55
2021/06/24 00:38:36;;;;;;;18.38;6.50;;;;;;;39.13;23.36;94784.38;5125719;27;20047;-54
2021/06/24 00:41:04;;;;;;;18.20;7.65;;;;;;;39.03;23.57;94780.88;5111913;28;20054;-59
2021/06/24 00:43:31;;;;;;;20.80;7.25;;;;;;;38.61;23.76;94782.78;5115232;28;20054;-57
2021/06/24 00:45:59;;;;;;;16.20;7.55;;;;;;;38.71;23.97;94779.59;5081774;28;20047;-59
2021/06/24 00:48:27;;;;;;;22.00;7.90;;;;;;;38.94;23.59;94783.66;5104835;27;20050;-61
2021/06/24 00:50:55;;;;;;;14.38;7.13;;;;;;;39.08;23.47;94783.03;5097309;28;20055;-58
2021/06/24 00:53:22;;;;;;;19.63;6.93;;;;;;;39.01;23.61;94786.03;5114875;28;20446;-56
2021/06/24 00:55:51;;;;;;;14.43;7.38;;;;;;;38.71;24.23;94785.06;5115342;28;20365;-54
2021/06/24 00:58:26;;;;;;;14.27;7.32;;;;;;;38.67;23.87;94781.75;5114543;28;20062;-57
2021/06/24 01:00:56;;;;;;;19.33;7.70;;;;;;;38.66;23.84;94784.94;5115584;28;20055;-56
2021/06/24 01:03:24;;;;;;;19.80;7.50;;;;;;;38.76;23.86;94794.63;5114946;28;20043;-57
2021/06/24 01:05:52;;;;;;;20.23;7.57;;;;;;;38.27;24.59;94792.84;5115156;28;20052;-55
2021/06/24 01:08:23;;;;;;;16.92;7.10;;;;;;;38.74;23.61;94802.50;5114830;28;20373;-56
2021/06/24 01:10:53;;;;;;;17.92;7.10;;;;;;;38.47;24.34;94801.31;5099627;28;20453;-60
2021/06/24 01:13:22;;;;;;;18.50;7.03;;;;;;;38.72;24.09;94805.69;5117682;28;20043;-55
2021/06/24 01:15:49;;;;;;;19.48;6.85;;;;;;;38.52;23.82;94798.00;5117675;28;20043;-56
2021/06/24 01:18:16;;;;;;;14.85;6.20;;;;;;;38.36;24.54;94795.56;5111229;28;20050;-60
2021/06/24 01:20:45;;;;;;;15.43;6.95;;;;;;;38.35;24.25;94799.50;5115080;28;20454;-59
2021/06/24 01:23:14;;;;;;;13.93;6.82;;;;;;;38.26;24.53;94796.78;5113921;28;20058;-56
2021/06/24 01:25:42;;;;;;;16.42;7.50;;;;;;;38.17;24.86;94799.50;5096760;28;20047;-53
2021/06/24 01:28:12;;;;;;;14.30;7.38;;;;;;;38.35;24.06;94796.78;5100328;28;20472;-53
2021/06/24 01:30:41;;;;;;;16.92;7.47;;;;;;;38.36;24.27;94795.56;5135183;28;20061;-58
2021/06/24 01:33:10;;;;;;;20.17;7.43;;;;;;;38.33;24.33;94796.47;5135015;28;20054;-56
2021/06/24 01:35:39;;;;;;;22.58;7.57;;;;;;;38.42;24.47;94810.13;5117404;28;20043;-58
2021/06/24 01:38:08;;;;;;;17.38;6.80;;;;;;;38.29;24.17;94806.81;5135329;28;20054;-57
2021/06/24 01:40:36;;;;;;;17.10;6.85;;;;;;;38.31;24.61;94798.91;5133861;28;20050;-59
2021/06/24 01:43:04;;;;;;;14.23;6.78;;;;;;;38.20;24.41;94798.59;5114146;28;20370;-56
2021/06/24 01:45:31;;;;;;;19.45;7.30;;;;;;;38.06;24.98;94791.75;5114793;28;20362;-54
2021/06/24 01:47:58;;;;;;;15.15;6.80;;;;;;;37.88;24.71;94794.47;5099437;28;20456;-60
2021/06/24 01:50:26;;;;;;;15.45;7.80;;;;;;;37.99;24.32;94794.75;5134833;28;20043;-58
2021/06/24 01:52:54;;;;;;;13.68;6.97;;;;;;;38.06;24.56;94793.72;5116790;28;20393;-54
2021/06/24 01:55:34;;;;;;;16.92;7.30;;;;;;;38.02;24.45;94801.31;5117187;28;20047;-55
2021/06/24 01:58:07;;;;;;;17.70;7.35;;;;;;;37.72;25.28;94792.75;5117026;28;20062;-56
2021/06/24 02:00:57;;;;;;;21.05;7.65;;;;;;;38.00;24.48;94795.50;5135105;28;20500;-55
2021/06/24 02:03:25;;;;;;;14.57;6.78;;;;;;;37.50;25.38;94792.09;5134956;28;20428;-60
2021/06/24 02:05:55;;;;;;;19.77;7.40;;;;;;;37.74;25.04;94795.81;5135138;28;20055;-57
2021/06/24 02:08:24;;;;;;;17.55;7.45;;;;;;;37.66;24.98;94789.09;5095667;28;20051;-55
2021/06/24 02:11:08;;;;;;;16.55;7.60;;;;;;;38.04;24.75;94779.78;5103430;28;20047;-53
2021/06/24 02:13:39;;;;;;;17.63;7.25;;;;;;;37.62;24.89;94772.88;5114161;28;20480;-54
2021/06/24 02:16:08;;;;;;;15.35;6.75;;;;;;;37.61;25.12;94778.78;5114480;28;20043;-54
2021/06/24 02:18:36;;;;;;;17.52;8.25;;;;;;;37.41;25.40;94775.69;5104357;28;20047;-55
2021/06/24 02:21:10;;;;;;;22.73;8.40;;;;;;;37.64;25.24;94781.34;5116703;27;20062;-55
2021/06/24 02:23:48;;;;;;;19.35;7.78;;;;;;;37.43;24.88;94776.00;5138314;27;20043;-54
2021/06/24 02:26:26;;;;;;;20.98;7.50;;;;;;;37.05;25.64;94774.34;5138661;27;20412;-57
2021/06/24 02:29:00;;;;;;;17.23;7.35;;;;;;;37.10;25.82;94773.75;5120236;27;20457;-55
2021/06/24 02:31:28;;;;;;;18.38;7.05;;;;;;;36.94;26.15;94774.72;5138340;27;20059;-55
2021/06/24 02:33:59;;;;;;;19.92;7.13;;;;;;;37.24;25.18;94770.47;5120106;27;20051;-54
2021/06/24 02:36:36;;;;;;;19.70;6.75;;;;;;;37.38;25.19;94762.97;5104976;27;20349;-55
2021/06/24 02:39:05;;;;;;;15.88;5.85;;;;;;;37.54;24.92;94758.00;5120066;27;20054;-54
2021/06/24 02:41:36;;;;;;;21.73;6.88;;;;;;;37.53;25.20;94758.47;5110297;28;20362;-54
2021/06/24 02:44:05;;;;;;;16.17;6.28;;;;;;;37.34;25.22;94758.41;5099440;28;20047;-55
2021/06/24 02:46:32;;;;;;;16.58;6.05;;;;;;;37.46;25.08;94759.50;5117623;28;20050;-56
2021/06/24 02:49:00;;;;;;;15.60;6.57;;;;;;;37.46;25.49;94766.91;5128738;27;20453;-56
2021/06/24 02:51:40;;;;;;;13.70;6.15;;;;;;;37.69;25.14;94766.34;5119585;27;20460;-57
2021/06/24 02:54:16;;;;;;;17.05;6.20;;;;;;;37.92;24.57;94763.09;5137946;27;20054;-57
2021/06/24 02:56:44;;;;;;;18.23;6.55;;;;;;;37.84;24.98;94766.56;5137745;27;20477;-54
2021/06/24 02:59:47;;;;;;;16.52;7.35;;;;;;;37.91;24.43;94769.75;5137525;27;20043;-57
2021/06/24 03:02:15;;;;;;;14.25;7.00;;;;;;;37.89;24.88;94769.44;5119846;27;20461;-54
2021/06/24 03:04:44;;;;;;;16.48;6.90;;;;;;;37.74;25.01;94774.00;5137913;27;20054;-53
2021/06/24 03:07:13;;;;;;;15.43;7.15;;;;;;;37.95;24.37;94784.00;5137743;27;20054;-56
2021/06/24 03:10:04;;;;;;;13.52;6.65;;;;;;;37.65;25.27;94782.88;5137509;27;20047;-57
2021/06/24 03:12:38;;;;;;;16.23;6.53;;;;;;;37.71;25.17;94780.31;5103091;27;20045;-55
2021/06/24 03:15:07;;;;;;;17.63;7.38;;;;;;;37.67;25.08;94776.97;5137594;27;20054;-58
2021/06/24 03:17:35;;;;;;;17.00;7.20;;;;;;;37.52;25.11;94770.59;5137357;27;20047;-54
2021/06/24 03:20:08;;;;;;;15.07;6.30;;;;;;;37.38;25.32;94792.94;5106443;27;20083;-56
2021/06/24 03:22:37;;;;;;;18.20;7.30;;;;;;;37.17;25.77;94787.09;5119267;27;20039;-55
2021/06/24 03:25:07;;;;;;;18.50;8.38;;;;;;;37.03;25.76;94782.19;5136452;27;20047;-56
2021/06/24 03:27:34;;;;;;;19.17;8.13;;;;;;;36.25;27.00;94774.09;5111778;28;20481;-59
2021/06/24 03:30:29;;;;;;;19.92;7.15;;;;;;;37.33;25.44;94772.50;5098665;27;20369;-57
2021/06/24 03:32:57;;;;;;;21.88;7.53;;;;;;;37.24;25.64;94765.03;5118013;27;20051;-53
2021/06/24 03:35:24;;;;;;;21.75;6.85;;;;;;;37.47;25.76;94761.00;5137393;27;20043;-60
2021/06/24 03:37:52;;;;;;;16.48;6.60;;;;;;;37.65;24.93;94765.75;5118922;27;20050;-55
2021/06/24 03:40:19;;;;;;;20.02;7.78;;;;;;;37.70;25.32;94767.88;5118945;27;20678;-54
2021/06/24 03:42:51;;;;;;;18.85;7.80;;;;;;;37.62;25.48;94780.28;5116454;27;20047;-54
2021/06/24 03:45:19;;;;;;;17.75;7.05;;;;;;;37.62;25.67;94780.28;5097588;28;20039;-56
2021/06/24 03:47:47;;;;;;;19.75;7.40;;;;;;;37.76;25.02;94782.47;5095813;28;20039;-54
2021/06/24 03:50:15;;;;;;;19.52;7.30;;;;;;;37.43;25.66;94784.19;5116059;28;20054;-56
2021/06/24 03:52:47;;;;;;;22.17;7.72;;;;;;;37.72;25.27;94784.56;5115878;28;20473;-55
2021/06/24 03:55:19;;;;;;;16.67;7.10;;;;;;;37.56;25.01;94790.28;5116378;28;20047;-57
2021/06/24 03:57:47;;;;;;;20.08;7.60;;;;;;;37.60;25.17;94796.34;5116136;28;20051;-56
2021/06/24 04:00:22;;;;;;;21.52;8.18;;;;;;;37.30;25.71;94785.06;5098059;28;20048;-59
2021/06/24 04:02:49;;;;;;;21.88;7.70;;;;;;;37.52;25.62;94795.13;5120346;27;20047;-55
2021/06/24 04:05:33;;;;;;;23.17;7.53;;;;;;;37.32;25.93;94787.34;5118959;27;20378;-54
2021/06/24 04:08:06;;;;;;;21.23;7.93;;;;;;;37.50;25.50;94792.09;5118371;27;20050;-55
2021/06/24 04:10:36;;;;;;;26.02;8.93;;;;;;;37.28;25.86;94792.94;5116930;27;20051;-53
2021/06/24 04:13:04;;;;;;;22.00;8.43;;;;;;;37.87;25.19;94795.66;5115422;28;20047;-54
2021/06/24 04:15:34;;;;;;;19.10;7.68;;;;;;;37.77;24.95;94794.91;5108130;28;20058;-55
2021/06/24 04:18:06;;;;;;;22.95;8.02;;;;;;;37.82;24.92;94797.03;5098884;28;20048;-56
2021/06/24 04:20:37;;;;;;;19.50;7.03;;;;;;;38.19;25.14;94797.06;5115399;28;20389;-54
2021/06/24 04:23:08;;;;;;;21.92;8.07;;;;;;;38.03;25.06;94802.81;5115539;28;20353;-57
2021/06/24 04:25:54;;;;;;;17.90;7.78;;;;;;;38.11;24.68;94795.84;5115827;28;20050;-55
2021/06/24 04:28:22;;;;;;;18.42;7.95;;;;;;;38.19;24.90;94797.84;5115461;28;20051;-55
2021/06/24 04:30:59;;;;;;;18.70;7.22;;;;;;;38.15;24.92;94789.00;5115209;28;20050;-53
2021/06/24 04:33:27;;;;;;;22.20;7.78;;;;;;;38.32;24.85;94784.03;5097400;28;20043;-56
2021/06/24 04:36:26;;;;;;;19.92;7.38;;;;;;;38.30;24.76;94781.03;5108035;28;20050;-55
2021/06/24 04:39:04;;;;;;;20.17;7.82;;;;;;;38.32;24.94;94778.59;5097479;28;20043;-56
2021/06/24 04:41:32;;;;;;;22.35;8.38;;;;;;;38.28;24.64;94777.97;5096064;28;20044;-56
2021/06/24 04:44:01;;;;;;;19.02;7.78;;;;;;;38.17;25.41;94785.84;5121104;27;20477;-58
2021/06/24 04:46:32;;;;;;;21.83;7.90;;;;;;;38.31;24.92;94785.25;5117445;27;20046;-54
2021/06/24 04:49:01;;;;;;;18.90;7.53;;;;;;;38.38;24.75;94787.69;5105527;28;20388;-55
2021/06/24 04:51:48;;;;;;;18.05;7.47;;;;;;;38.48;25.11;94775.53;5113470;28;20522;-56
2021/06/24 04:54:25;;;;;;;21.20;7.63;;;;;;;38.42;24.80;94782.81;5115176;28;20040;-57
2021/06/24 04:56:53;;;;;;;17.60;7.72;;;;;;;38.74;24.30;94781.41;5096881;28;20048;-56
2021/06/24 04:59:28;;;;;;;20.60;8.15;;;;;;;38.78;24.35;94789.47;5097405;28;20048;-57
2021/06/24 05:02:14;;;;;;;20.48;7.93;;;;;;;39.11;23.83;94798.50;5115045;28;20050;-55
2021/06/24 05:05:10;;;;;;;19.73;7.40;;;;;;;39.01;24.20;94788.00;5077399;28;20052;-55
2021/06/24 05:07:39;;;;;;;23.55;8.27;;;;;;;38.86;24.20;94787.94;5112219;28;20350;-56
2021/06/24 05:10:07;;;;;;;22.90;8.40;;;;;;;38.92;24.94;94779.84;5098567;28;20055;-59
2021/06/24 05:12:34;;;;;;;26.75;8.05;;;;;;;39.15;24.42;94781.94;5117293;28;20043;-55
2021/06/24 05:15:02;;;;;;;22.73;8.75;;;;;;;39.15;24.48;94781.94;5135305;28;20054;-56
2021/06/24 05:17:29;;;;;;;23.70;8.48;;;;;;;39.06;24.45;94790.94;5135688;28;20046;-60
2021/06/24 05:19:58;;;;;;;20.95;8.00;;;;;;;39.42;23.94;94792.75;5097293;28;20051;-57
2021/06/24 05:22:28;;;;;;;17.35;8.43;;;;;;;39.34;24.30;94793.56;5097130;28;20040;-57
2021/06/24 05:24:55;;;;;;;22.10;8.50;;;;;;;39.45;24.35;94796.53;5134243;28;20043;-57
2021/06/24 05:27:22;;;;;;;29.33;9.00;;;;;;;39.46;24.32;94795.31;5135068;28;20039;-57
2021/06/24 05:29:49;;;;;;;20.23;8.07;;;;;;;39.96;23.73;94793.69;5127111;28;20044;-57
2021/06/24 05:32:16;;;;;;;23.23;8.07;;;;;;;39.90;23.78;94795.53;5133527;28;20061;-61
2021/06/24 05:34:44;;;;;;;28.55;8.95;;;;;;;39.90;24.05;94794.78;5134740;28;20050;-56
2021/06/24 05:37:18;;;;;;;17.08;7.97;;;;;;;39.99;23.86;94795.50;5135193;28;20361;-57
2021/06/24 05:39:45;;;;;;;14.80;7.57;;;;;;;39.85;23.65;94787.22;5135219;28;20054;-58
2021/06/24 05:42:12;;;;;;;24.55;8.98;;;;;;;40.22;23.20;94793.97;5119342;28;20062;-57
2021/06/24 05:44:39;;;;;;;21.88;8.30;;;;;;;40.25;23.25;94798.50;5114246;28;20043;-55
2021/06/24 05:47:06;;;;;;;22.20;8.43;;;;;;;40.20;23.25;94790.94;5114153;28;20055;-58
2021/06/24 05:49:33;;;;;;;26.38;9.05;;;;;;;40.60;22.64;94793.19;5130812;28;20051;-56
2021/06/24 05:52:01;;;;;;;26.00;8.32;;;;;;;40.39;23.15;94796.28;5102391;28;20062;-55
2021/06/24 05:54:28;;;;;;;22.35;9.70;;;;;;;40.07;23.87;94795.88;5123186;28;20433;-54
2021/06/24 05:56:55;;;;;;;20.48;9.13;;;;;;;40.18;23.49;94790.66;5135090;27;20047;-58
2021/06/24 05:59:22;;;;;;;26.48;8.43;;;;;;;40.87;22.48;94792.19;5120443;27;20055;-59
2021/06/24 06:01:51;;;;;;;21.35;8.57;;;;;;;41.04;22.36;94794.44;5138270;27;20039;-57
2021/06/24 06:04:18;;;;;;;21.88;9.05;;;;;;;40.57;23.33;94790.63;5129982;27;20050;-59
2021/06/24 06:06:46;;;;;;;25.45;9.45;;;;;;;41.03;22.63;94785.47;5138516;27;20047;-55
2021/06/24 06:09:13;;;;;;;26.35;9.70;;;;;;;41.24;22.13;94791.78;5138776;27;20054;-57
2021/06/24 06:11:43;;;;;;;26.75;9.40;;;;;;;40.81;23.46;94793.31;5127090;27;20051;-62
2021/06/24 06:14:10;;;;;;;16.30;8.23;;;;;;;41.11;22.99;94794.03;5129638;27;20043;-61
2021/06/24 06:16:38;;;;;;;21.52;8.77;;;;;;;40.98;22.59;94797.84;5138896;27;20463;-51
2021/06/24 06:19:06;;;;;;;26.20;9.52;;;;;;;40.99;23.35;94787.63;5125568;27;20044;-58
2021/06/24 06:21:34;;;;;;;22.98;9.18;;;;;;;41.44;22.56;94786.34;5117748;28;20062;-60
2021/06/24 06:24:01;;;;;;;25.60;9.27;;;;;;;41.28;23.22;94781.38;5117880;28;20043;-55
2021/06/24 06:26:28;;;;;;;25.77;8.90;;;;;;;41.67;22.37;94794.94;5118085;28;20461;-52
2021/06/24 06:29:02;;;;;;;21.33;8.80;;;;;;;41.88;21.92;94793.69;5118354;27;20047;-55
2021/06/24 06:31:38;;;;;;;25.90;8.63;;;;;;;41.48;23.70;94794.38;5110378;28;20394;-53
2021/06/24 06:34:06;;;;;;;22.20;9.63;;;;;;;41.09;22.21;94793.75;5127591;27;20046;-53
2021/06/24 06:36:34;;;;;;;25.95;8.77;;;;;;;41.82;21.34;94798.34;5137371;27;20043;-52
2021/06/24 06:39:01;;;;;;;33.70;9.40;;;;;;;41.50;22.38;94794.66;5138145;27;20373;-55
2021/06/24 06:41:29;;;;;;;20.05;9.93;;;;;;;41.87;22.30;94797.66;5107309;28;20051;-72
2021/06/24 06:43:56;;;;;;;21.80;8.75;;;;;;;42.25;21.86;94793.16;5117869;28;20047;-68
2021/06/24 06:46:23;;;;;;;20.08;9.82;;;;;;;40.86;23.06;94798.91;5117375;28;20046;-66
2021/06/24 06:48:50;;;;;;;23.27;9.18;;;;;;;41.63;21.89;94794.31;5127392;27;20055;-56
2021/06/24 06:51:18;;;;;;;21.75;8.98;;;;;;;42.25;21.67;94787.69;5134127;27;20043;-61
2021/06/24 06:53:45;;;;;;;22.30;8.80;;;;;;;42.67;20.49;94789.84;5097091;28;20044;-61
2021/06/24 06:56:12;;;;;;;24.20;8.38;;;;;;;42.59;20.97;94781.31;5101062;27;20378;-56
2021/06/24 06:58:39;;;;;;;26.40;9.70;;;;;;;41.83;23.61;94786.16;5119789;27;20066;-57
2021/06/24 07:01:06;;;;;;;25.02;9.55;;;;;;;41.91;22.84;94792.00;5130348;27;20052;-55
2021/06/24 07:03:34;;;;;;;23.10;8.30;;;;;;;42.44;22.02;94786.88;5096816;28;20441;-55
2021/06/24 07:06:01;;;;;;;21.45;9.50;;;;;;;42.36;22.29;94777.53;5096647;28;20052;-59
2021/06/24 07:08:28;;;;;;;24.55;9.57;;;;;;;42.38;22.67;94790.78;5137181;27;20349;-55
2021/06/24 07:10:55;;;;;;;22.75;8.98;;;;;;;43.31;20.99;94786.69;5133290;27;20343;-54
2021/06/24 07:13:22;;;;;;;29.15;9.50;;;;;;;42.76;21.58;94786.97;5117132;28;20044;-56
2021/06/24 07:15:50;;;;;;;28.60;8.55;;;;;;;42.78;22.41;94790.72;5117178;28;20054;-54
2021/06/24 07:18:17;;;;;;;18.83;7.57;;;;;;;43.32;21.64;94781.94;5103773;27;20350;-57
2021/06/24 07:20:44;;;;;;;21.48;8.02;;;;;;;43.20;21.66;94786.56;5137335;27;20050;-69
2021/06/24 07:23:11;;;;;;;19.63;7.80;;;;;;;43.43;21.19;94778.50;5130387;27;20044;-56
2021/06/24 07:25:39;;;;;;;21.05;8.18;;;;;;;43.17;21.65;94776.56;5096446;28;20049;-57
2021/06/24 07:28:07;;;;;;;17.63;6.90;;;;;;;43.78;21.30;94773.50;5130465;27;20457;-57
2021/06/24 07:30:35;;;;;;;17.52;7.45;;;;;;;43.88;20.82;94774.78;5128107;27;20052;-56
2021/06/24 07:33:02;;;;;;;18.65;7.47;;;;;;;44.44;20.33;94783.22;5116456;28;20043;-57
2021/06/24 07:35:29;;;;;;;20.50;7.32;;;;;;;44.34;20.64;94789.47;5116745;28;20050;-55
2021/06/24 07:37:56;;;;;;;21.67;7.65;;;;;;;44.38;19.82;94778.97;5131914;27;20043;-57
2021/06/24 07:40:23;;;;;;;22.90;7.35;;;;;;;44.28;19.77;94781.22;5136763;27;20051;-59
2021/06/24 07:42:50;;;;;;;21.10;7.30;;;;;;;44.64;19.57;94784.31;5116516;27;20090;-64
2021/06/24 07:45:18;;;;;;;20.35;7.40;;;;;;;44.77;19.74;94788.09;5116520;28;20074;-59
2021/06/24 07:47:45;;;;;;;19.15;7.97;;;;;;;43.98;20.36;94791.81;5116873;27;20047;-60
2021/06/24 07:50:12;;;;;;;16.60;7.45;;;;;;;44.51;19.84;94788.31;5136483;27;20062;-57
2021/06/24 07:52:39;;;;;;;24.35;7.82;;;;;;;45.13;19.44;94786.34;5137038;27;20046;-58
2021/06/24 07:55:07;;;;;;;18.35;7.45;;;;;;;44.64;19.49;94790.56;5137064;27;20056;-58
2021/06/24 07:57:35;;;;;;;20.05;7.68;;;;;;;45.09;19.17;94796.91;5130454;27;20874;-52
2021/06/24 08:00:06;;;;;;;21.60;8.13;;;;;;;45.00;19.77;94788.09;5106392;27;20055;-56
2021/06/24 08:02:41;;;;;;;19.83;7.95;;;;;;;45.41;18.63;94788.34;5136882;27;20047;-58
2021/06/24 08:05:12;;;;;;;24.52;7.45;;;;;;;45.19;19.07;94789.09;5102256;27;20377;-55
2021/06/24 08:07:43;;;;;;;23.67;7.43;;;;;;;45.31;18.17;94784.38;5136186;27;20054;-56
2021/06/24 08:10:12;;;;;;;16.92;6.63;;;;;;;45.34;18.19;94784.09;5136251;27;20043;-56
2021/06/24 08:12:43;;;;;;;20.13;8.10;;;;;;;45.44;18.61;94781.81;5106246;27;20055;-54
2021/06/24 08:15:11;;;;;;;18.33;7.70;;;;;;;45.56;19.48;94791.59;5095690;28;20040;-55
2021/06/24 08:17:38;;;;;;;20.25;7.50;;;;;;;45.45;18.23;94789.59;5118048;27;20061;-55
2021/06/24 08:20:07;;;;;;;16.55;6.93;;;;;;;45.67;17.91;94791.59;5114545;28;20050;-54
2021/06/24 08:22:34;;;;;;;14.60;6.53;;;;;;;44.95;16.55;94789.63;5115767;28;20047;-55
2021/06/24 08:25:01;;;;;;;20.58;6.15;;;;;;;45.59;17.22;94795.34;5115805;28;20040;-56
2021/06/24 08:27:28;;;;;;;20.20;6.68;;;;;;;45.57;17.60;94801.38;5115107;28;20074;-55
2021/06/24 08:29:57;;;;;;;16.90;6.38;;;;;;;45.55;17.24;94798.38;5118921;27;20054;-54
2021/06/24 08:32:24;;;;;;;19.10;5.25;;;;;;;45.31;16.81;94800.94;5130255;27;20504;-56
2021/06/24 08:34:52;;;;;;;16.15;5.88;;;;;;;45.27;17.12;94803.16;5115307;28;20054;-55
2021/06/24 08:37:19;;;;;;;16.38;5.57;;;;;;;45.62;17.51;94795.13;5123433;27;20109;-59
2021/06/24 08:39:48;;;;;;;14.25;5.90;;;;;;;45.53;17.25;94794.59;5135993;27;20043;-59
2021/06/24 08:42:16;;;;;;;17.13;5.70;;;;;;;45.46;17.65;94788.34;5120424;27;20040;-53
2021/06/24 08:44:47;;;;;;;15.27;5.13;;;;;;;45.72;16.21;94795.59;5111157;28;20055;-58
2021/06/24 08:47:15;;;;;;;18.77;5.22;;;;;;;45.60;16.82;94786.56;5107596;27;20069;-55
2021/06/24 08:49:43;;;;;;;15.73;5.18;;;;;;;45.89;15.90;94787.25;5117647;27;20035;-58
2021/06/24 08:52:11;;;;;;;13.73;4.60;;;;;;;45.45;16.00;94783.31;5117790;27;20057;-61
2021/06/24 08:54:38;;;;;;;19.58;5.93;;;;;;;46.10;16.66;94791.22;5135938;27;20365;-56
2021/06/24 08:57:06;;;;;;;12.65;5.15;;;;;;;45.94;16.13;94795.50;5110687;27;20453;-55
2021/06/24 08:59:33;;;;;;;14.60;5.45;;;;;;;45.86;16.30;94796.56;5136015;27;20054;-58
2021/06/24 09:02:01;;;;;;;16.85;5.22;;;;;;;45.62;15.71;94777.81;5135456;27;20043;-57
2021/06/24 09:04:32;;;;;;;12.02;4.88;;;;;;;45.98;15.93;94784.19;5135833;27;20054;-56
2021/06/24 09:07:10;;;;;;;19.25;5.20;;;;;;;45.42;16.09;94779.56;5117408;28;20046;-57
2021/06/24 09:09:40;;;;;;;17.05;5.53;;;;;;;45.82;16.97;94771.22;5100615;27;20058;-58
2021/06/24 09:12:08;;;;;;;13.50;5.70;;;;;;;45.48;16.10;94780.31;5094350;28;20055;-62
2021/06/24 09:15:02;;;;;;;17.33;5.38;;;;;;;45.80;15.48;94777.97;5135726;28;20046;-55
2021/06/24 09:17:36;;;;;;;18.80;5.68;;;;;;;45.93;16.22;94779.44;5130930;28;20058;-54
2021/06/24 09:20:19;;;;;;;19.00;8.30;;;;;;;46.11;15.32;94778.91;5113976;28;20044;-55
2021/06/24 09:23:06;;;;;;;44.28;37.40;;;;;;;45.93;15.06;94776.69;5114388;28;20369;-68
2021/06/24 09:25:35;;;;;;;19.50;9.43;;;;;;;46.23;15.43;94774.81;5115038;28;20044;-55
2021/06/24 09:28:02;;;;;;;18.48;6.72;;;;;;;46.01;14.65;94772.16;5126846;28;20446;-59
2021/06/24 09:30:32;;;;;;;15.82;5.85;;;;;;;45.11;14.17;94766.81;5117362;27;20050;-56
2021/06/24 09:33:11;;;;;;;13.93;5.63;;;;;;;45.72;14.67;94774.25;5139743;27;20051;-54
2021/06/24 09:35:39;;;;;;;14.15;6.00;;;;;;;45.78;16.30;94769.44;5133194;27;20058;-56
2021/06/24 09:38:13;;;;;;;11.10;5.50;;;;;;;46.10;15.37;94774.66;5123952;27;20385;-54
2021/06/24 09:40:53;;;;;;;18.98;5.60;;;;;;;46.25;14.18;94780.59;5137634;27;20043;-57
2021/06/24 09:43:29;;;;;;;10.75;4.80;;;;;;;46.03;13.70;94775.16;5118981;28;20039;-57
2021/06/24 09:46:15;;;;;;;13.60;5.43;;;;;;;46.16;14.14;94772.59;5118963;28;20044;-55
2021/06/24 09:48:47;;;;;;;14.60;5.05;;;;;;;45.95;14.48;94766.63;5126443;27;20047;-56
2021/06/24 09:51:21;;;;;;;16.55;4.82;;;;;;;46.13;14.51;94773.63;5139325;27;20046;-56
2021/06/24 09:54:00;;;;;;;16.88;4.70;;;;;;;46.34;15.23;94760.97;5139325;27;20046;-58
2021/06/24 09:56:32;;;;;;;24.20;19.17;;;;;;;46.38;14.83;94766.97;5139296;27;20047;-54
2021/06/24 09:59:03;;;;;;;16.40;6.50;;;;;;;46.21;14.31;94758.00;5138729;27;20342;-59
2021/06/24 10:01:40;;;;;;;18.77;7.13;;;;;;;46.48;15.07;94758.38;5139148;27;20058;-54
2021/06/24 10:04:29;;;;;;;14.15;5.80;;;;;;;46.50;14.55;94755.84;5111532;28;20386;-56
2021/06/24 10:06:58;;;;;;;10.50;4.70;;;;;;;46.57;14.77;94755.28;5102021;27;20051;-50
2021/06/24 10:09:51;;;;;;;15.10;4.10;;;;;;;46.81;14.58;94752.63;5138737;27;20043;-70
2021/06/24 10:12:19;;;;;;;19.00;4.88;;;;;;;46.70;13.67;94738.88;5123022;27;20059;-69
2021/06/24 10:14:47;;;;;;;13.27;4.53;;;;;;;46.47;14.77;94746.56;5118423;28;20328;-70
2021/06/24 10:17:14;;;;;;;9.18;4.30;;;;;;;47.30;14.24;94747.19;5117706;28;20044;-71
2021/06/24 10:19:43;;;;;;;13.85;4.70;;;;;;;47.05;14.31;94742.88;5115332;28;20040;-69
2021/06/24 10:22:22;;;;;;;13.45;4.72;;;;;;;46.69;15.08;94742.91;5117842;28;20047;-67
2021/06/24 10:25:03;;;;;;;13.27;4.18;;;;;;;46.70;14.74;94741.63;5099644;28;20036;-69
2021/06/24 10:27:35;;;;;;;11.35;3.83;;;;;;;46.55;14.07;94741.22;5100186;28;20375;-69
2021/06/24 10:30:13;;;;;;;17.00;4.47;;;;;;;46.27;13.72;94744.91;5117742;28;20059;-70
2021/06/24 10:32:43;;;;;;;9.82;4.20;;;;;;;46.93;13.51;94742.97;5117735;28;20347;-70
2021/06/24 10:35:29;;;;;;;16.00;5.10;;;;;;;46.84;13.49;94745.31;5117975;28;20461;-70
2021/06/24 10:38:05;;;;;;;13.18;4.43;;;;;;;47.07;13.04;94735.56;5117114;28;20044;-70
2021/06/24 10:40:37;;;;;;;11.90;4.25;;;;;;;47.19;12.78;94730.72;5118245;27;20055;-71
2021/06/24 10:43:15;;;;;;;9.18;4.05;;;;;;;46.54;13.27;94734.22;5137308;27;20054;-71
2021/06/24 10:45:44;;;;;;;11.50;4.63;;;;;;;46.63;14.67;94731.88;5091881;28;20047;-68
2021/06/24 10:48:31;;;;;;;16.77;4.55;;;;;;;46.84;14.17;94729.47;5112690;27;20035;-68
2021/06/24 10:51:03;;;;;;;8.48;4.18;;;;;;;46.81;12.26;94729.75;5138169;27;20046;-69
2021/06/24 10:53:35;;;;;;;13.43;4.28;;;;;;;47.12;12.42;94725.75;5138145;27;20050;-70
2021/06/24 10:56:23;;;;;;;14.10;4.30;;;;;;;46.61;12.75;94728.88;5138115;27;20050;-70
2021/06/24 10:58:51;;;;;;;13.90;4.32;;;;;;;46.81;13.22;94730.50;5137664;27;20054;-70
2021/06/24 11:02:00;;;;;;;11.55;4.53;;;;;;;46.83;13.75;94727.22;5138184;27;20047;-70
2021/06/24 11:04:29;;;;;;;21.90;4.45;;;;;;;46.27;12.29;94733.84;5114333;27;20377;-70
2021/06/24 11:06:58;;;;;;;12.33;5.00;;;;;;;46.78;12.31;94730.78;5137601;27;20057;-69
2021/06/24 11:09:25;;;;;;;15.93;5.20;;;;;;;47.42;12.70;94720.91;5137530;27;20466;-70
2021/06/24 11:11:53;;;;;;;14.68;4.53;;;;;;;47.00;11.25;94714.75;5125470;27;20043;-69
2021/06/24 11:14:55;;;;;;;10.57;4.00;;;;;;;47.45;11.38;94717.09;5117116;28;20054;-70
2021/06/24 11:17:45;;;;;;;18.30;4.70;;;;;;;46.84;13.86;94723.94;5113497;28;20043;-69
2021/06/24 11:20:13;;;;;;;;;;;;;;;46.75;13.66;94710.44;5135687;27;20046;-68
2021/06/24 11:22:48;;;;;;;13.27;5.10;;;;;;;46.54;14.72;94715.59;5137814;27;19911;-68
2021/06/24 11:25:15;;;;;;;13.25;4.82;;;;;;;46.34;14.37;94711.22;5128017;27;20044;-69
2021/06/24 11:27:42;;;;;;;17.65;4.93;;;;;;;46.47;13.46;94715.41;5108389;27;20042;-69
2021/06/24 11:30:11;;;;;;;13.15;4.53;;;;;;;46.38;13.46;94717.25;5137055;27;20056;-69
2021/06/24 11:32:43;;;;;;;14.25;4.30;;;;;;;46.46;12.99;94722.22;5137442;27;20047;-68
2021/06/24 11:35:32;;;;;;;15.02;4.95;;;;;;;46.40;13.69;94713.97;5137303;27;20050;-69
2021/06/24 11:38:00;;;;;;;14.05;4.25;;;;;;;46.51;13.75;94713.13;5136617;27;20054;-68
2021/06/24 11:40:28;;;;;;;15.55;5.03;;;;;;;46.55;13.60;94716.34;5137269;27;20035;-69
2021/06/24 11:42:55;;;;;;;11.98;4.70;;;;;;;46.76;12.56;94711.94;5116511;28;20043;-68
2021/06/24 11:45:24;;;;;;;16.20;4.68;;;;;;;46.71;13.07;94707.19;5116642;28;20043;-68